Aérodrome :
LOGIN :

S'inscrire | Disclaimer

   EN    FR    IT 

 










Légende :    VFR   VFR Marginal   IFR   IFR Intensif   IFR Très Intensif
Visi : 
Plafond : 
>= 8 km
>= 3000ft
5 à 8 km
1000 à 3000 ft
1500m à 5 km
500 à 1000 ft
800 à 1500m
200 à 500 ft
< 800m
< 200 ft
Symboles :   Orages  Brouillard  Fortes neiges  Fortes précipitations  Vent > 20 kt
SIGMETs :   Divers  Orages  Givrage  Turbulence  Onde Orograph.  Cendres Volcan.






- Altitude de l'aérodrome : 584 ft


LFPV - Villacoublay Vélizy

DERNIER METAR :
  • 212000Z AUTO 03009KT 8000 NSC 13/06 Q1018

METARs EXPIRÉS :
  • 211930Z AUTO 04010KT 9000 NSC 14/06 Q1017 NOSIG
  • 211900Z AUTO 05009KT CAVOK 14/05 Q1017 NOSIG
  • 211830Z AUTO 06007KT CAVOK 14/08 Q1017 NOSIG
  • 211800Z AUTO 03006KT 9999 FEW016 BKN078 OVC096 14/08 Q1017 NOSIG
  • 211730Z AUTO 06013KT 030V090 9999 FEW033 BKN054 BKN070 14/07 Q1017 NOSIG

TAF TAF LFPV
Valide du 21 à 15h jusqu'au 22 à 15h UTC


211400Z 2115/2215 03008KT CAVOK TX17/2115Z TN06/2205Z
TEMPO 2115/2118 SCT050TCU
TEMPO 2212/2215 05010G20KT



MET'MAP, la Météo Aéronautique d'un coup d'oeil ! - Copyright ORBIFLY Décembre 2007 - Disclaimer

ORBIFLY MET'MAP TEAM :

Programmation & Développement : Alexandra Zaïnal
Sur une idée originale de : Baudouin d'Aumeries
Assistance à la programmation : Marc-Olivier Méhu
Soutien technique & logistique : Manuel Goepfert

Contact : metmap@orbifly.com




SOURCES & CREDITS :

   NOAA